sensor_id;sensor_type;location;lat;lon;timestamp;pressure;altitude;pressure_sealevel;temperature;humidity
69667;BME280;66534;52.370;4.832;2023-02-28T00:00:06;103256.44;;;5.65;100.00
69667;BME280;66534;52.370;4.832;2023-02-28T00:00:43;103247.75;;;5.65;100.00
69667;BME280;66534;52.370;4.832;2023-02-28T00:01:13;103249.19;;;5.44;100.00
69667;BME280;66534;52.370;4.832;2023-02-28T00:01:45;103244.91;;;5.48;100.00
69667;BME280;66534;52.370;4.832;2023-02-28T00:02:15;103243.53;;;5.73;100.00
69667;BME280;66534;52.370;4.832;2023-02-28T00:02:47;103240.84;;;5.67;100.00
69667;BME280;66534;52.370;4.832;2023-02-28T00:03:18;103245.09;;;5.62;100.00
69667;BME280;66534;52.370;4.832;2023-02-28T00:03:48;103250.19;;;5.53;100.00
69667;BME280;66534;52.370;4.832;2023-02-28T00:04:19;103243.13;;;5.44;100.00
69667;BME280;66534;52.370;4.832;2023-02-28T00:04:49;103251.66;;;5.35;100.00
69667;BME280;66534;52.370;4.832;2023-02-28T00:05:23;103250.88;;;5.41;100.00
69667;BME280;66534;52.370;4.832;2023-02-28T00:05:55;103249.31;;;5.52;100.00
69667;BME280;66534;52.370;4.832;2023-02-28T00:06:25;103254.53;;;5.54;100.00
69667;BME280;66534;52.370;4.832;2023-02-28T00:06:56;103248.53;;;5.58;100.00
69667;BME280;66534;52.370;4.832;2023-02-28T00:07:27;103252.81;;;5.54;100.00
69667;BME280;66534;52.370;4.832;2023-02-28T00:07:57;103252.59;;;5.42;100.00
69667;BME280;66534;52.370;4.832;2023-02-28T00:08:28;103254.94;;;5.23;100.00
69667;BME280;66534;52.370;4.832;2023-02-28T00:08:58;103261.69;;;5.14;100.00
69667;BME280;66534;52.370;4.832;2023-02-28T00:09:29;103264.28;;;5.12;100.00
69667;BME280;66534;52.370;4.832;2023-02-28T00:09:59;103259.00;;;5.09;100.00
69667;BME280;66534;52.370;4.832;2023-02-28T00:10:30;103264.22;;;5.09;100.00
69667;BME280;66534;52.370;4.832;2023-02-28T00:11:11;103261.06;;;5.27;100.00
69667;BME280;66534;52.370;4.832;2023-02-28T00:11:43;103251.81;;;5.47;100.00
69667;BME280;66534;52.370;4.832;2023-02-28T00:12:13;103254.41;;;5.47;100.00
69667;BME280;66534;52.370;4.832;2023-02-28T00:12:44;103259.47;;;5.37;100.00
69667;BME280;66534;52.370;4.832;2023-02-28T00:13:14;103251.06;;;5.53;100.00
69667;BME280;66534;52.370;4.832;2023-02-28T00:13:46;103248.41;;;5.50;100.00
69667;BME280;66534;52.370;4.832;2023-02-28T00:14:17;103256.13;;;5.44;100.00
69667;BME280;66534;52.370;4.832;2023-02-28T00:14:47;103252.47;;;5.31;100.00
69667;BME280;66534;52.370;4.832;2023-02-28T00:15:18;103256.09;;;5.42;100.00
69667;BME280;66534;52.370;4.832;2023-02-28T00:15:58;103244.59;;;5.28;100.00
69667;BME280;66534;52.370;4.832;2023-02-28T00:16:29;103256.00;;;5.38;100.00
69667;BME280;66534;52.370;4.832;2023-02-28T00:17:00;103248.28;;;5.42;100.00
69667;BME280;66534;52.370;4.832;2023-02-28T00:17:30;103252.41;;;5.28;100.00
69667;BME280;66534;52.370;4.832;2023-02-28T00:18:01;103254.84;;;5.19;100.00
69667;BME280;66534;52.370;4.832;2023-02-28T00:18:31;103259.84;;;5.07;100.00
69667;BME280;66534;52.370;4.832;2023-02-28T00:19:02;103259.88;;;5.08;100.00
69667;BME280;66534;52.370;4.832;2023-02-28T00:19:33;103253.28;;;5.30;100.00
69667;BME280;66534;52.370;4.832;2023-02-28T00:20:04;103245.81;;;5.52;100.00
69667;BME280;66534;52.370;4.832;2023-02-28T00:20:40;103251.34;;;5.17;100.00
69667;BME280;66534;52.370;4.832;2023-02-28T00:21:10;103255.13;;;5.36;100.00
69667;BME280;66534;52.370;4.832;2023-02-28T00:21:40;103252.41;;;5.28;100.00
69667;BME280;66534;52.370;4.832;2023-02-28T00:22:11;103254.28;;;5.38;100.00
69667;BME280;66534;52.370;4.832;2023-02-28T00:22:42;103259.53;;;5.41;100.00
69667;BME280;66534;52.370;4.832;2023-02-28T00:23:17;103250.31;;;5.60;100.00
69667;BME280;66534;52.370;4.832;2023-02-28T00:23:48;103252.00;;;5.60;100.00
69667;BME280;66534;52.370;4.832;2023-02-28T00:24:18;103251.06;;;5.55;100.00
69667;BME280;66534;52.370;4.832;2023-02-28T00:24:49;103249.34;;;5.55;100.00
69667;BME280;66534;52.370;4.832;2023-02-28T00:25:20;103258.75;;;5.45;100.00
69667;BME280;66534;52.370;4.832;2023-02-28T00:25:52;103253.78;;;5.08;100.00
69667;BME280;66534;52.370;4.832;2023-02-28T00:26:23;103255.25;;;4.92;100.00
69667;BME280;66534;52.370;4.832;2023-02-28T00:26:54;103254.22;;;4.82;100.00
69667;BME280;66534;52.370;4.832;2023-02-28T00:27:24;103251.78;;;4.93;100.00
69667;BME280;66534;52.370;4.832;2023-02-28T00:27:55;103257.19;;;5.02;100.00
69667;BME280;66534;52.370;4.832;2023-02-28T00:28:25;103257.25;;;5.07;100.00
69667;BME280;66534;52.370;4.832;2023-02-28T00:28:56;103251.13;;;5.03;100.00
69667;BME280;66534;52.370;4.832;2023-02-28T00:29:26;103258.94;;;5.05;100.00
69667;BME280;66534;52.370;4.832;2023-02-28T00:29:57;103257.28;;;5.10;100.00
69667;BME280;66534;52.370;4.832;2023-02-28T00:30:27;103247.50;;;4.95;100.00
69667;BME280;66534;52.370;4.832;2023-02-28T00:30:58;103254.66;;;5.08;100.00
69667;BME280;66534;52.370;4.832;2023-02-28T00:31:29;103253.13;;;5.19;100.00
69667;BME280;66534;52.370;4.832;2023-02-28T00:32:00;103255.88;;;5.30;100.00
69667;BME280;66534;52.370;4.832;2023-02-28T00:32:31;103248.25;;;5.39;100.00
69667;BME280;66534;52.370;4.832;2023-02-28T00:33:01;103254.09;;;5.26;100.00
69667;BME280;66534;52.370;4.832;2023-02-28T00:33:32;103253.72;;;5.05;100.00
69667;BME280;66534;52.370;4.832;2023-02-28T00:34:02;103258.22;;;5.13;100.00
69667;BME280;66534;52.370;4.832;2023-02-28T00:34:32;103250.59;;;5.22;100.00
69667;BME280;66534;52.370;4.832;2023-02-28T00:35:08;103253.06;;;5.15;100.00
69667;BME280;66534;52.370;4.832;2023-02-28T00:35:39;103246.06;;;5.11;100.00
69667;BME280;66534;52.370;4.832;2023-02-28T00:36:10;103252.81;;;5.01;100.00
69667;BME280;66534;52.370;4.832;2023-02-28T00:36:41;103258.06;;;5.03;100.00
69667;BME280;66534;52.370;4.832;2023-02-28T00:37:15;103254.66;;;5.08;100.00
69667;BME280;66534;52.370;4.832;2023-02-28T00:37:45;103250.53;;;5.19;100.00
69667;BME280;66534;52.370;4.832;2023-02-28T00:38:18;103258.56;;;5.33;100.00
69667;BME280;66534;52.370;4.832;2023-02-28T00:38:49;103259.56;;;5.43;100.00
69667;BME280;66534;52.370;4.832;2023-02-28T00:39:19;103248.31;;;5.44;100.00
69667;BME280;66534;52.370;4.832;2023-02-28T00:39:50;103254.28;;;5.37;100.00
69667;BME280;66534;52.370;4.832;2023-02-28T00:40:20;103256.88;;;5.37;100.00
69667;BME280;66534;52.370;4.832;2023-02-28T00:40:51;103255.53;;;5.62;100.00
69667;BME280;66534;52.370;4.832;2023-02-28T00:41:21;103256.59;;;5.76;100.00
69667;BME280;66534;52.370;4.832;2023-02-28T00:41:52;103253.22;;;5.83;100.00
69667;BME280;66534;52.370;4.832;2023-02-28T00:42:22;103249.63;;;5.73;100.00
69667;BME280;66534;52.370;4.832;2023-02-28T00:42:53;103252.47;;;5.90;100.00
69667;BME280;66534;52.370;4.832;2023-02-28T00:43:24;103250.44;;;5.69;100.00
69667;BME280;66534;52.370;4.832;2023-02-28T00:43:54;103249.63;;;5.73;100.00
69667;BME280;66534;52.370;4.832;2023-02-28T00:44:25;103244.91;;;5.48;100.00
69667;BME280;66534;52.370;4.832;2023-02-28T00:44:55;103245.75;;;5.47;100.00
69667;BME280;66534;52.370;4.832;2023-02-28T00:45:26;103248.13;;;5.33;100.00
69667;BME280;66534;52.370;4.832;2023-02-28T00:45:56;103245.41;;;5.24;100.00
69667;BME280;66534;52.370;4.832;2023-02-28T00:46:26;103251.41;;;5.21;100.00
69667;BME280;66534;52.370;4.832;2023-02-28T00:46:57;103253.09;;;5.18;100.00
69667;BME280;66534;52.370;4.832;2023-02-28T00:47:29;103253.19;;;5.22;100.00
69667;BME280;66534;52.370;4.832;2023-02-28T00:47:59;103250.53;;;5.21;100.00
69667;BME280;66534;52.370;4.832;2023-02-28T00:48:29;103252.47;;;5.31;100.00
69667;BME280;66534;52.370;4.832;2023-02-28T00:49:00;103248.50;;;5.56;100.00
69667;BME280;66534;52.370;4.832;2023-02-28T00:49:30;103246.78;;;5.60;100.00
69667;BME280;66534;52.370;4.832;2023-02-28T00:50:01;103243.13;;;5.45;100.00
69667;BME280;66534;52.370;4.832;2023-02-28T00:50:32;103241.63;;;5.61;100.00
69667;BME280;66534;52.370;4.832;2023-02-28T00:51:03;103247.88;;;5.74;100.00
69667;BME280;66534;52.370;4.832;2023-02-28T00:51:33;103244.53;;;5.83;100.00
69667;BME280;66534;52.370;4.832;2023-02-28T00:52:04;103242.22;;;6.03;100.00
69667;BME280;66534;52.370;4.832;2023-02-28T00:52:35;103236.16;;;6.02;100.00
69667;BME280;66534;52.370;4.832;2023-02-28T00:53:05;103243.06;;;6.02;100.00
69667;BME280;66534;52.370;4.832;2023-02-28T00:53:35;103247.28;;;5.93;100.00
69667;BME280;66534;52.370;4.832;2023-02-28T00:54:06;103242.88;;;5.89;100.00
69667;BME280;66534;52.370;4.832;2023-02-28T00:54:36;103247.84;;;5.72;100.00
69667;BME280;66534;52.370;4.832;2023-02-28T00:55:07;103240.94;;;5.74;100.00
69667;BME280;66534;52.370;4.832;2023-02-28T00:55:37;103242.69;;;5.74;100.00
69667;BME280;66534;52.370;4.832;2023-02-28T00:56:08;103242.50;;;5.60;100.00
69667;BME280;66534;52.370;4.832;2023-02-28T00:56:38;103238.84;;;5.49;100.00
69667;BME280;66534;52.370;4.832;2023-02-28T00:57:09;103251.56;;;5.31;100.00
69667;BME280;66534;52.370;4.832;2023-02-28T00:57:39;103251.47;;;5.23;100.00
69667;BME280;66534;52.370;4.832;2023-02-28T00:58:10;103247.78;;;5.12;100.00
69667;BME280;66534;52.370;4.832;2023-02-28T00:58:40;103251.84;;;4.96;100.00
69667;BME280;66534;52.370;4.832;2023-02-28T00:59:11;103249.81;;;4.78;100.00
69667;BME280;66534;52.370;4.832;2023-02-28T00:59:42;103252.34;;;4.73;100.00
69667;BME280;66534;52.370;4.832;2023-02-28T01:00:13;103247.94;;;4.71;100.00
69667;BME280;66534;52.370;4.832;2023-02-28T01:00:43;103254.16;;;4.79;100.00
69667;BME280;66534;52.370;4.832;2023-02-28T01:01:18;103249.94;;;4.86;100.00
69667;BME280;66534;52.370;4.832;2023-02-28T01:01:49;103251.19;;;5.06;100.00
69667;BME280;66534;52.370;4.832;2023-02-28T01:02:20;103248.72;;;5.15;100.00
69667;BME280;66534;52.370;4.832;2023-02-28T01:02:51;103252.41;;;5.28;100.00
69667;BME280;66534;52.370;4.832;2023-02-28T01:03:22;103248.88;;;5.26;100.00
69667;BME280;66534;52.370;4.832;2023-02-28T01:03:52;103236.88;;;5.34;100.00
69667;BME280;66534;52.370;4.832;2023-02-28T01:04:23;103239.84;;;5.57;100.00
69667;BME280;66534;52.370;4.832;2023-02-28T01:04:53;103245.81;;;5.52;100.00
69667;BME280;66534;52.370;4.832;2023-02-28T01:05:24;103243.25;;;5.53;100.00
69667;BME280;66534;52.370;4.832;2023-02-28T01:05:54;103242.03;;;5.31;100.00
69667;BME280;66534;52.370;4.832;2023-02-28T01:06:25;103247.94;;;5.19;100.00
69667;BME280;66534;52.370;4.832;2023-02-28T01:06:55;103244.41;;;5.16;100.00
69667;BME280;66534;52.370;4.832;2023-02-28T01:07:25;103245.00;;;5.01;100.00
69667;BME280;66534;52.370;4.832;2023-02-28T01:07:56;103248.59;;;5.08;100.00
69667;BME280;66534;52.370;4.832;2023-02-28T01:08:26;103238.97;;;5.04;100.00
69667;BME280;66534;52.370;4.832;2023-02-28T01:08:57;103252.00;;;5.05;100.00
69667;BME280;66534;52.370;4.832;2023-02-28T01:09:28;103247.66;;;5.06;100.00
69667;BME280;66534;52.370;4.832;2023-02-28T01:09:58;103256.84;;;4.84;100.00
69667;BME280;66534;52.370;4.832;2023-02-28T01:10:29;103252.66;;;4.92;100.00
69667;BME280;66534;52.370;4.832;2023-02-28T01:11:10;103251.19;;;5.08;100.00
69667;BME280;66534;52.370;4.832;2023-02-28T01:11:42;103256.97;;;4.90;100.00
69667;BME280;66534;52.370;4.832;2023-02-28T01:12:14;103248.53;;;5.03;100.00
69667;BME280;66534;52.370;4.832;2023-02-28T01:12:44;103248.69;;;5.14;100.00
69667;BME280;66534;52.370;4.832;2023-02-28T01:13:15;103251.34;;;5.17;100.00
69667;BME280;66534;52.370;4.832;2023-02-28T01:13:46;103250.59;;;5.22;100.00
69667;BME280;66534;52.370;4.832;2023-02-28T01:14:17;103249.06;;;5.37;100.00
69667;BME280;66534;52.370;4.832;2023-02-28T01:14:47;103253.47;;;5.39;100.00
69667;BME280;66534;52.370;4.832;2023-02-28T01:15:18;103255.09;;;5.34;100.00
69667;BME280;66534;52.370;4.832;2023-02-28T01:15:50;103249.94;;;5.36;100.00
69667;BME280;66534;52.370;4.832;2023-02-28T01:16:22;103255.16;;;5.39;100.00
69667;BME280;66534;52.370;4.832;2023-02-28T01:16:52;103239.84;;;5.59;100.00
69667;BME280;66534;52.370;4.832;2023-02-28T01:17:23;103243.38;;;5.62;100.00
69667;BME280;66534;52.370;4.832;2023-02-28T01:17:53;103241.34;;;5.43;100.00
69667;BME280;66534;52.370;4.832;2023-02-28T01:18:24;103239.78;;;5.54;100.00
69667;BME280;66534;52.370;4.832;2023-02-28T01:18:54;103244.84;;;5.45;100.00
69667;BME280;66534;52.370;4.832;2023-02-28T01:19:25;103240.47;;;5.41;100.00
69667;BME280;66534;52.370;4.832;2023-02-28T01:19:55;103237.91;;;5.45;100.00
69667;BME280;66534;52.370;4.832;2023-02-28T01:20:26;103243.44;;;5.68;100.00
69667;BME280;66534;52.370;4.832;2023-02-28T01:20:56;103238.97;;;5.58;100.00
69667;BME280;66534;52.370;4.832;2023-02-28T01:21:27;103240.81;;;5.65;100.00
69667;BME280;66534;52.370;4.832;2023-02-28T01:22:00;103233.69;;;5.54;100.00
69667;BME280;66534;52.370;4.832;2023-02-28T01:22:31;103235.50;;;5.59;100.00
69667;BME280;66534;52.370;4.832;2023-02-28T01:23:01;103236.56;;;5.72;100.00
69667;BME280;66534;52.370;4.832;2023-02-28T01:23:31;103243.53;;;5.73;100.00
69667;BME280;66534;52.370;4.832;2023-02-28T01:24:03;103234.56;;;5.53;100.00
69667;BME280;66534;52.370;4.832;2023-02-28T01:24:34;103234.59;;;5.56;100.00
69667;BME280;66534;52.370;4.832;2023-02-28T01:25:04;103234.63;;;5.57;100.00
69667;BME280;66534;52.370;4.832;2023-02-28T01:25:35;103230.38;;;5.64;100.00
69667;BME280;66534;52.370;4.832;2023-02-28T01:26:13;103232.97;;;5.62;100.00
69667;BME280;66534;52.370;4.832;2023-02-28T01:26:45;103235.19;;;5.36;100.00
69667;BME280;66534;52.370;4.832;2023-02-28T01:27:16;103227.38;;;5.38;100.00
69667;BME280;66534;52.370;4.832;2023-02-28T01:27:46;103230.97;;;5.46;100.00
69667;BME280;66534;52.370;4.832;2023-02-28T01:28:17;103226.78;;;5.56;100.00
69667;BME280;66534;52.370;4.832;2023-02-28T01:28:47;103227.06;;;5.75;100.00
69667;BME280;66534;52.370;4.832;2023-02-28T01:29:19;103229.66;;;5.74;100.00
69667;BME280;66534;52.370;4.832;2023-02-28T01:29:50;103225.22;;;5.68;100.00
69667;BME280;66534;52.370;4.832;2023-02-28T01:30:21;103221.41;;;5.43;100.00
69667;BME280;66534;52.370;4.832;2023-02-28T01:30:51;103222.09;;;5.32;100.00
69667;BME280;66534;52.370;4.832;2023-02-28T01:31:22;103221.19;;;5.30;100.00
69667;BME280;66534;52.370;4.832;2023-02-28T01:31:53;103224.22;;;5.57;100.00
69667;BME280;66534;52.370;4.832;2023-02-28T01:32:24;103217.38;;;5.65;100.00
69667;BME280;66534;52.370;4.832;2023-02-28T01:33:12;103223.09;;;5.40;100.00
69667;BME280;66534;52.370;4.832;2023-02-28T01:33:43;103223.09;;;5.41;100.00
69667;BME280;66534;52.370;4.832;2023-02-28T01:34:14;103221.53;;;5.53;100.00
69667;BME280;66534;52.370;4.832;2023-02-28T01:34:44;103218.31;;;5.70;100.00
69667;BME280;66534;52.370;4.832;2023-02-28T01:35:15;103228.66;;;5.64;100.00
69667;BME280;66534;52.370;4.832;2023-02-28T01:35:45;103216.47;;;5.63;100.00
69667;BME280;66534;52.370;4.832;2023-02-28T01:36:22;103216.34;;;5.54;100.00
69667;BME280;66534;52.370;4.832;2023-02-28T01:36:54;103225.22;;;5.67;100.00
69667;BME280;66534;52.370;4.832;2023-02-28T01:37:24;103225.97;;;5.60;100.00
69667;BME280;66534;52.370;4.832;2023-02-28T01:37:54;103224.91;;;5.45;100.00
69667;BME280;66534;52.370;4.832;2023-02-28T01:38:25;103226.47;;;5.34;100.00
69667;BME280;66534;52.370;4.832;2023-02-28T01:38:56;103228.09;;;5.28;100.00
69667;BME280;66534;52.370;4.832;2023-02-28T01:39:26;103218.78;;;5.42;100.00
69667;BME280;66534;52.370;4.832;2023-02-28T01:39:57;103226.69;;;5.48;100.00
69667;BME280;66534;52.370;4.832;2023-02-28T01:40:27;103226.50;;;5.37;100.00
69667;BME280;66534;52.370;4.832;2023-02-28T01:40:57;103223.34;;;5.58;100.00
69667;BME280;66534;52.370;4.832;2023-02-28T01:41:29;103227.91;;;5.73;100.00
69667;BME280;66534;52.370;4.832;2023-02-28T01:42:01;103221.59;;;5.57;100.00
69667;BME280;66534;52.370;4.832;2023-02-28T01:42:32;103224.16;;;5.53;100.00
69667;BME280;66534;52.370;4.832;2023-02-28T01:43:02;103223.53;;;5.69;100.00
69667;BME280;66534;52.370;4.832;2023-02-28T01:43:52;103233.34;;;5.90;100.00
69667;BME280;66534;52.370;4.832;2023-02-28T01:45:34;103226.31;;;5.83;100.00
69667;BME280;66534;52.370;4.832;2023-02-28T01:46:05;103226.19;;;5.75;100.00
69667;BME280;66534;52.370;4.832;2023-02-28T01:46:36;103225.09;;;5.58;100.00
69667;BME280;66534;52.370;4.832;2023-02-28T01:47:06;103221.66;;;5.60;100.00
69667;BME280;66534;52.370;4.832;2023-02-28T01:47:38;103223.69;;;5.83;100.00
69667;BME280;66534;52.370;4.832;2023-02-28T01:48:12;103218.75;;;5.99;100.00
69667;BME280;66534;52.370;4.832;2023-02-28T01:49:24;103223.03;;;5.96;100.00
69667;BME280;66534;52.370;4.832;2023-02-28T01:49:42;103212.75;;;6.08;100.00
69667;BME280;66534;52.370;4.832;2023-02-28T01:50:14;103214.13;;;5.82;100.00
69667;BME280;66534;52.370;4.832;2023-02-28T01:50:49;103219.47;;;5.91;100.00
69667;BME280;66534;52.370;4.832;2023-02-28T01:51:22;103217.72;;;5.91;100.00
69667;BME280;66534;52.370;4.832;2023-02-28T01:51:58;103210.88;;;5.96;100.00
69667;BME280;66534;52.370;4.832;2023-02-28T01:52:29;103214.25;;;5.91;100.00
69667;BME280;66534;52.370;4.832;2023-02-28T01:53:03;103213.84;;;5.62;100.00
69667;BME280;66534;52.370;4.832;2023-02-28T01:53:43;103217.28;;;5.58;100.00
69667;BME280;66534;52.370;4.832;2023-02-28T01:54:22;103216.84;;;5.91;100.00
69667;BME280;66534;52.370;4.832;2023-02-28T01:54:56;103215.44;;;6.14;100.00
69667;BME280;66534;52.370;4.832;2023-02-28T01:55:30;103214.38;;;5.98;100.00
69667;BME280;66534;52.370;4.832;2023-02-28T01:56:04;103216.81;;;5.88;100.00
69667;BME280;66534;52.370;4.832;2023-02-28T01:56:37;103213.84;;;5.60;100.00
69667;BME280;66534;52.370;4.832;2023-02-28T01:57:09;103221.63;;;5.59;100.00
69667;BME280;66534;52.370;4.832;2023-02-28T01:57:46;103215.44;;;5.50;100.00
69667;BME280;66534;52.370;4.832;2023-02-28T01:58:22;103219.69;;;5.45;100.00
69667;BME280;66534;52.370;4.832;2023-02-28T01:58:53;103220.75;;;5.57;100.00
69667;BME280;66534;52.370;4.832;2023-02-28T01:59:26;103218.31;;;5.72;100.00
69667;BME280;66534;52.370;4.832;2023-02-28T02:00:17;103213.97;;;5.69;100.00
69667;BME280;66534;52.370;4.832;2023-02-28T02:00:52;103217.44;;;5.70;100.00
69667;BME280;66534;52.370;4.832;2023-02-28T02:01:23;103217.31;;;5.61;100.00
69667;BME280;66534;52.370;4.832;2023-02-28T02:01:57;103213.88;;;5.63;100.00
69667;BME280;66534;52.370;4.832;2023-02-28T02:02:27;103217.34;;;5.64;100.00
69667;BME280;66534;52.370;4.832;2023-02-28T02:02:59;103216.13;;;5.39;100.00
69667;BME280;66534;52.370;4.832;2023-02-28T02:03:35;103216.84;;;5.30;100.00
69667;BME280;66534;52.370;4.832;2023-02-28T02:04:05;103217.22;;;5.53;100.00
69667;BME280;66534;52.370;4.832;2023-02-28T02:04:40;103220.00;;;5.67;100.00
69667;BME280;66534;52.370;4.832;2023-02-28T02:05:21;103217.50;;;5.76;100.00
69667;BME280;66534;52.370;4.832;2023-02-28T02:05:53;103220.16;;;5.79;100.00
69667;BME280;66534;52.370;4.832;2023-02-28T02:06:30;103215.06;;;5.87;100.00
69667;BME280;66534;52.370;4.832;2023-02-28T02:07:07;103215.78;;;5.77;100.00
69667;BME280;66534;52.370;4.832;2023-02-28T02:07:39;103217.56;;;5.81;100.00
69667;BME280;66534;52.370;4.832;2023-02-28T02:08:12;103217.69;;;5.87;100.00
69667;BME280;66534;52.370;4.832;2023-02-28T02:08:48;103216.75;;;5.82;100.00
69667;BME280;66534;52.370;4.832;2023-02-28T02:09:19;103214.78;;;5.67;100.00
69667;BME280;66534;52.370;4.832;2023-02-28T02:09:49;103217.34;;;5.64;100.00
69667;BME280;66534;52.370;4.832;2023-02-28T02:10:35;103216.69;;;5.79;100.00
69667;BME280;66534;52.370;4.832;2023-02-28T02:11:10;103218.50;;;5.84;100.00
69667;BME280;66534;52.370;4.832;2023-02-28T02:11:43;103214.13;;;5.82;100.00
69667;BME280;66534;52.370;4.832;2023-02-28T02:15:27;103205.44;;;5.81;100.00
69667;BME280;66534;52.370;4.832;2023-02-28T02:16:10;103203.66;;;5.79;100.00
69667;BME280;66534;52.370;4.832;2023-02-28T02:17:05;103209.84;;;5.85;100.00
69667;BME280;66534;52.370;4.832;2023-02-28T02:17:59;103201.56;;;6.17;100.00
69667;BME280;66534;52.370;4.832;2023-02-28T02:20:37;103198.09;;;6.18;100.00
69667;BME280;66534;52.370;4.832;2023-02-28T02:23:50;103191.34;;;6.34;100.00
69667;BME280;66534;52.370;4.832;2023-02-28T02:24:38;103191.31;;;6.32;100.00
69667;BME280;66534;52.370;4.832;2023-02-28T02:25:29;103190.41;;;6.27;100.00
69667;BME280;66534;52.370;4.832;2023-02-28T02:26:28;103194.66;;;6.19;100.00
69667;BME280;66534;52.370;4.832;2023-02-28T02:27:22;103205.09;;;6.20;100.00
69667;BME280;66534;52.370;4.832;2023-02-28T02:32:34;103194.72;;;6.25;100.00
69667;BME280;66534;52.370;4.832;2023-02-28T02:33:03;103182.72;;;6.41;100.00
69667;BME280;66534;52.370;4.832;2023-02-28T02:34:23;103184.09;;;6.10;100.00
69667;BME280;66534;52.370;4.832;2023-02-28T02:35:11;103185.44;;;5.79;100.00
69667;BME280;66534;52.370;4.832;2023-02-28T02:36:04;103186.09;;;5.62;100.00
69667;BME280;66534;52.370;4.832;2023-02-28T02:37:54;103192.28;;;5.69;100.00
69667;BME280;66534;52.370;4.832;2023-02-28T02:39:48;103182.63;;;5.63;100.00
69667;BME280;66534;52.370;4.832;2023-02-28T02:41:56;103186.59;;;5.99;100.00
69667;BME280;66534;52.370;4.832;2023-02-28T02:42:51;103197.59;;;5.80;100.00
69667;BME280;66534;52.370;4.832;2023-02-28T02:43:56;103189.03;;;5.87;100.00
69667;BME280;66534;52.370;4.832;2023-02-28T02:44:38;103188.09;;;5.85;100.00
69667;BME280;66534;52.370;4.832;2023-02-28T02:45:22;103185.44;;;5.79;100.00
69667;BME280;66534;52.370;4.832;2023-02-28T02:45:59;103188.28;;;5.94;100.00
69667;BME280;66534;52.370;4.832;2023-02-28T02:46:45;103185.06;;;6.18;100.00
69667;BME280;66534;52.370;4.832;2023-02-28T02:47:18;103183.28;;;6.14;100.00
69667;BME280;66534;52.370;4.832;2023-02-28T02:47:53;103180.91;;;6.32;100.00
69667;BME280;66534;52.370;4.832;2023-02-28T02:48:27;103187.91;;;6.39;100.00
69667;BME280;66534;52.370;4.832;2023-02-28T02:49:02;103189.50;;;6.25;100.00
69667;BME280;66534;52.370;4.832;2023-02-28T02:49:36;103184.38;;;6.34;100.00
69667;BME280;66534;52.370;4.832;2023-02-28T02:50:15;103188.59;;;6.21;100.00
69667;BME280;66534;52.370;4.832;2023-02-28T02:50:54;103189.41;;;6.17;100.00
69667;BME280;66534;52.370;4.832;2023-02-28T02:51:27;103184.25;;;6.20;100.00
69667;BME280;66534;52.370;4.832;2023-02-28T02:52:02;103183.47;;;6.28;100.00
69667;BME280;66534;52.370;4.832;2023-02-28T02:52:38;103188.63;;;6.23;100.00
69667;BME280;66534;52.370;4.832;2023-02-28T02:53:11;103191.97;;;6.11;100.00
69667;BME280;66534;52.370;4.832;2023-02-28T02:53:46;103188.34;;;6.02;100.00
69667;BME280;66534;52.370;4.832;2023-02-28T02:54:25;103191.66;;;5.90;100.00
69667;BME280;66534;52.370;4.832;2023-02-28T02:54:58;103185.78;;;6.05;100.00
69667;BME280;66534;52.370;4.832;2023-02-28T02:55:33;103186.59;;;5.99;100.00
69667;BME280;66534;52.370;4.832;2023-02-28T02:56:08;103189.94;;;5.90;100.00
69667;BME280;66534;52.370;4.832;2023-02-28T02:56:42;103184.91;;;6.04;100.00
69667;BME280;66534;52.370;4.832;2023-02-28T02:57:18;103187.38;;;5.93;100.00
69667;BME280;66534;52.370;4.832;2023-02-28T02:57:54;103194.25;;;5.88;100.00
69667;BME280;66534;52.370;4.832;2023-02-28T02:58:35;103189.69;;;5.72;100.00
69667;BME280;66534;52.370;4.832;2023-02-28T02:59:12;103190.38;;;5.59;100.00
69667;BME280;66534;52.370;4.832;2023-02-28T02:59:51;103190.44;;;5.62;100.00
69667;BME280;66534;52.370;4.832;2023-02-28T03:00:27;103192.31;;;5.73;100.00
69667;BME280;66534;52.370;4.832;2023-02-28T03:01:03;103189.56;;;5.63;100.00
69667;BME280;66534;52.370;4.832;2023-02-28T03:01:34;103193.88;;;5.61;100.00
69667;BME280;66534;52.370;4.832;2023-02-28T03:02:09;103191.41;;;5.70;100.00
69667;BME280;66534;52.370;4.832;2023-02-28T03:02:44;103189.72;;;5.75;100.00
69667;BME280;66534;52.370;4.832;2023-02-28T03:03:16;103190.56;;;5.72;100.00
69667;BME280;66534;52.370;4.832;2023-02-28T03:04:10;103195.00;;;5.78;100.00
69667;BME280;66534;52.370;4.832;2023-02-28T03:04:48;103195.75;;;5.69;100.00
69667;BME280;66534;52.370;4.832;2023-02-28T03:05:23;103188.66;;;5.59;100.00
69667;BME280;66534;52.370;4.832;2023-02-28T03:05:59;103193.84;;;5.59;100.00
69667;BME280;66534;52.370;4.832;2023-02-28T03:06:31;103183.50;;;5.64;100.00
69667;BME280;66534;52.370;4.832;2023-02-28T03:07:01;103191.75;;;5.32;100.00
69667;BME280;66534;52.370;4.832;2023-02-28T03:07:32;103193.47;;;5.32;100.00
69667;BME280;66534;52.370;4.832;2023-02-28T03:08:03;103195.28;;;5.37;100.00
69667;BME280;66534;52.370;4.832;2023-02-28T03:08:36;103195.47;;;5.49;100.00
69667;BME280;66534;52.370;4.832;2023-02-28T03:09:08;103192.09;;;5.58;100.00
69667;BME280;66534;52.370;4.832;2023-02-28T03:09:38;103201.47;;;5.47;100.00
69667;BME280;66534;52.370;4.832;2023-02-28T03:11:00;103200.78;;;5.57;100.00
69667;BME280;66534;52.370;4.832;2023-02-28T03:11:34;103195.59;;;5.59;100.00
69667;BME280;66534;52.370;4.832;2023-02-28T03:12:09;103196.44;;;5.58;100.00
69667;BME280;66534;52.370;4.832;2023-02-28T03:12:46;103200.94;;;5.69;100.00
69667;BME280;66534;52.370;4.832;2023-02-28T03:16:49;103192.69;;;5.99;100.00